createdAt,value
2023-04-09T00:00:41.297Z,99.90
2023-04-09T00:03:28.517Z,99.90
2023-04-09T00:06:16.431Z,99.90
2023-04-09T00:09:03.989Z,99.90
2023-04-09T00:11:51.530Z,99.90
2023-04-09T00:14:38.831Z,99.90
2023-04-09T00:17:26.178Z,99.90
2023-04-09T00:20:13.498Z,99.90
2023-04-09T00:23:02.308Z,99.90
2023-04-09T00:25:49.494Z,99.90
2023-04-09T00:28:37.477Z,99.90
2023-04-09T00:31:24.809Z,99.90
2023-04-09T00:34:12.280Z,99.90
2023-04-09T00:37:00.608Z,99.90
2023-04-09T00:39:47.745Z,99.90
2023-04-09T00:42:37.524Z,99.90
2023-04-09T00:45:24.707Z,99.90
2023-04-09T00:48:14.256Z,99.90
2023-04-09T00:51:01.820Z,99.90
2023-04-09T00:53:49.465Z,99.90
2023-04-09T00:56:40.899Z,99.90
2023-04-09T00:59:28.480Z,99.90
2023-04-09T01:02:18.644Z,99.90
2023-04-09T01:05:06.933Z,99.90
2023-04-09T01:08:06.514Z,99.90
2023-04-09T01:10:59.850Z,99.90
2023-04-09T01:13:50.156Z,99.90
2023-04-09T01:16:38.602Z,99.90
2023-04-09T01:19:43.992Z,99.90
2023-04-09T01:22:53.819Z,99.90
2023-04-09T01:26:01.720Z,99.90
2023-04-09T01:28:52.617Z,99.90
2023-04-09T01:31:43.249Z,99.90
2023-04-09T01:34:32.238Z,99.90
2023-04-09T01:37:21.189Z,99.90
2023-04-09T01:40:10.705Z,99.90
2023-04-09T01:42:59.106Z,99.90
2023-04-09T01:45:47.482Z,99.90
2023-04-09T01:48:35.587Z,99.90
2023-04-09T01:51:23.350Z,99.90
2023-04-09T01:54:10.900Z,99.90
2023-04-09T01:56:59.374Z,99.90
2023-04-09T01:59:46.974Z,99.90
2023-04-09T02:02:40.291Z,99.90
2023-04-09T02:05:30.984Z,99.90
2023-04-09T02:08:21.535Z,99.90
2023-04-09T02:11:10.700Z,99.90
2023-04-09T02:13:58.890Z,99.90
2023-04-09T02:16:46.792Z,99.90
2023-04-09T02:19:48.148Z,99.90
2023-04-09T02:22:35.344Z,99.90
2023-04-09T02:25:24.336Z,99.90
2023-04-09T02:28:11.958Z,99.90
2023-04-09T02:30:59.239Z,99.90
2023-04-09T02:33:46.630Z,99.90
2023-04-09T02:36:33.948Z,99.90
2023-04-09T02:39:21.385Z,99.90
2023-04-09T02:42:08.834Z,99.90
2023-04-09T02:44:56.515Z,99.90
2023-04-09T02:47:43.922Z,99.90
2023-04-09T02:50:31.249Z,99.90
2023-04-09T02:53:18.811Z,99.90
2023-04-09T02:56:06.557Z,99.90
2023-04-09T02:58:54.296Z,99.90
2023-04-09T03:01:41.976Z,99.90
2023-04-09T03:04:29.428Z,99.90
2023-04-09T03:07:16.781Z,99.90
2023-04-09T03:10:04.356Z,99.90
2023-04-09T03:12:51.621Z,99.90
2023-04-09T03:15:38.897Z,99.90
2023-04-09T03:18:26.294Z,99.90
2023-04-09T03:21:14.965Z,99.90
2023-04-09T03:24:02.260Z,99.90
2023-04-09T03:26:49.777Z,99.90
2023-04-09T03:29:37.590Z,99.90
2023-04-09T03:32:24.797Z,99.90
2023-04-09T03:35:12.338Z,99.90
2023-04-09T03:38:00.165Z,99.90
2023-04-09T03:40:47.900Z,99.90
2023-04-09T03:43:35.099Z,99.90
2023-04-09T03:46:22.715Z,99.90
2023-04-09T03:49:10.084Z,99.90
2023-04-09T03:51:57.412Z,99.90
2023-04-09T03:54:45.868Z,99.90
2023-04-09T03:57:33.481Z,99.90
2023-04-09T04:00:21.032Z,99.90
2023-04-09T04:03:08.492Z,99.90
2023-04-09T04:05:57.356Z,99.90
2023-04-09T04:08:44.664Z,99.90
2023-04-09T04:11:31.902Z,99.90
2023-04-09T04:14:19.262Z,99.90
2023-04-09T04:17:06.734Z,99.90
2023-04-09T04:19:54.447Z,99.90
2023-04-09T04:22:42.044Z,99.90
2023-04-09T04:25:30.527Z,99.90
2023-04-09T04:28:17.992Z,99.90
2023-04-09T04:31:13.092Z,99.90
2023-04-09T04:34:00.516Z,99.90
2023-04-09T04:36:48.056Z,99.90
2023-04-09T04:39:35.601Z,99.90
2023-04-09T04:42:23.144Z,99.90
2023-04-09T04:45:11.135Z,99.90
2023-04-09T04:47:58.744Z,99.90
2023-04-09T04:50:46.539Z,99.90
2023-04-09T04:53:33.824Z,99.90
2023-04-09T04:56:21.368Z,99.90
2023-04-09T04:59:08.584Z,99.90
2023-04-09T05:01:56.159Z,99.90
2023-04-09T05:04:43.882Z,99.90
2023-04-09T05:07:31.110Z,99.90
2023-04-09T05:10:18.651Z,99.90
2023-04-09T05:13:06.299Z,99.90
2023-04-09T05:15:53.833Z,99.90
2023-04-09T05:18:41.252Z,99.90
2023-04-09T05:21:28.843Z,99.90
2023-04-09T05:24:16.126Z,99.90
2023-04-09T05:27:03.678Z,99.90
2023-04-09T05:29:51.050Z,99.90
2023-04-09T05:32:38.973Z,99.90
2023-04-09T05:35:26.628Z,99.90
2023-04-09T05:38:16.858Z,99.90
2023-04-09T05:41:04.580Z,99.90
2023-04-09T05:43:52.107Z,99.90
2023-04-09T05:46:39.985Z,99.90
2023-04-09T05:49:27.327Z,99.90
2023-04-09T05:52:17.228Z,99.90
2023-04-09T05:55:06.503Z,99.90
2023-04-09T05:57:54.422Z,99.90
2023-04-09T06:00:42.036Z,99.90
2023-04-09T06:03:29.691Z,99.90
2023-04-09T06:06:19.137Z,99.90
2023-04-09T06:09:06.543Z,99.90
2023-04-09T06:11:54.300Z,99.90
2023-04-09T06:14:41.521Z,99.90
2023-04-09T06:17:30.309Z,99.90
2023-04-09T06:20:18.045Z,99.90
2023-04-09T06:23:05.644Z,99.90
2023-04-09T06:25:53.238Z,99.90
2023-04-09T06:28:40.912Z,99.90
2023-04-09T06:31:28.006Z,99.90
2023-04-09T06:34:15.810Z,99.90
2023-04-09T06:37:03.629Z,99.90
2023-04-09T06:40:00.590Z,99.90
2023-04-09T06:42:40.070Z,99.90
2023-04-09T06:45:30.221Z,99.90
2023-04-09T06:48:17.544Z,99.90
2023-04-09T06:51:05.495Z,99.90
2023-04-09T06:53:53.284Z,99.90
2023-04-09T06:56:41.118Z,99.90
2023-04-09T06:59:28.921Z,99.90
2023-04-09T07:02:16.761Z,99.90
2023-04-09T07:05:04.923Z,99.90
2023-04-09T07:07:52.329Z,99.90
2023-04-09T07:10:39.932Z,99.90
2023-04-09T07:16:18.970Z,99.90
2023-04-09T07:19:07.502Z,99.90
2023-04-09T07:21:57.356Z,99.90
2023-04-09T07:24:44.422Z,99.90
2023-04-09T07:27:31.885Z,99.90
2023-04-09T07:30:19.498Z,99.90
2023-04-09T07:33:07.142Z,99.90
2023-04-09T07:35:55.533Z,99.90
2023-04-09T07:38:46.974Z,99.90
2023-04-09T07:41:34.508Z,99.90
2023-04-09T07:44:22.153Z,99.90
2023-04-09T07:47:12.804Z,99.90
2023-04-09T07:50:00.153Z,99.90
2023-04-09T07:52:47.496Z,99.90
2023-04-09T07:55:34.587Z,99.90
2023-04-09T07:58:22.209Z,99.90
2023-04-09T08:01:10.238Z,99.90
2023-04-09T08:03:57.753Z,99.90
2023-04-09T08:06:47.452Z,99.90
2023-04-09T08:09:34.984Z,99.90
2023-04-09T08:12:22.254Z,99.90
2023-04-09T08:15:09.838Z,99.90
2023-04-09T08:17:57.657Z,99.90
2023-04-09T08:20:45.594Z,99.90
2023-04-09T08:23:32.975Z,99.90
2023-04-09T08:26:20.707Z,99.90
2023-04-09T08:29:09.591Z,99.90
2023-04-09T08:31:57.245Z,99.90
2023-04-09T08:34:44.355Z,99.90
2023-04-09T08:37:32.406Z,99.90
2023-04-09T08:40:19.795Z,99.90
2023-04-09T08:43:08.983Z,99.90
2023-04-09T08:45:57.902Z,99.90
2023-04-09T08:48:49.420Z,99.90
2023-04-09T08:51:36.603Z,99.90
2023-04-09T08:54:25.905Z,99.90
2023-04-09T08:57:13.474Z,99.90
2023-04-09T09:00:01.423Z,99.90
2023-04-09T09:03:07.096Z,99.90
2023-04-09T09:05:54.550Z,99.90
2023-04-09T09:08:42.086Z,99.90
2023-04-09T09:11:30.353Z,99.90
2023-04-09T09:14:20.196Z,99.90
2023-04-09T09:17:08.448Z,99.90
2023-04-09T09:19:57.044Z,99.90
2023-04-09T09:22:54.726Z,99.90
2023-04-09T09:25:44.241Z,99.90
2023-04-09T09:28:35.714Z,99.90
2023-04-09T09:31:23.920Z,99.90
2023-04-09T09:34:11.521Z,99.90
2023-04-09T09:36:58.838Z,99.90
2023-04-09T09:39:46.438Z,99.90
2023-04-09T09:42:34.123Z,99.90
2023-04-09T09:45:21.257Z,99.90
2023-04-09T09:48:10.780Z,99.90
2023-04-09T09:50:57.974Z,99.90
2023-04-09T09:53:48.357Z,99.90
2023-04-09T09:56:42.015Z,99.90
2023-04-09T09:59:32.598Z,99.90
2023-04-09T10:02:21.883Z,99.90
2023-04-09T10:05:10.541Z,99.90
2023-04-09T10:08:01.080Z,99.90
2023-04-09T10:10:49.167Z,99.90
2023-04-09T10:13:41.302Z,99.90
2023-04-09T10:16:28.908Z,99.90
2023-04-09T10:19:16.954Z,99.90
2023-04-09T10:22:10.379Z,99.90
2023-04-09T10:24:59.858Z,99.90
2023-04-09T10:27:48.510Z,99.90
2023-04-09T10:30:37.641Z,99.90
2023-04-09T10:33:28.186Z,99.90
2023-04-09T10:36:16.846Z,99.90
2023-04-09T10:39:09.366Z,99.90
2023-04-09T10:41:58.826Z,99.60
2023-04-09T10:44:46.649Z,99.90
2023-04-09T10:47:36.544Z,99.90
2023-04-09T10:50:29.347Z,97.70
2023-04-09T10:53:24.884Z,97.60
2023-04-09T10:56:20.350Z,97.50
2023-04-09T10:59:07.821Z,97.50
2023-04-09T11:01:55.313Z,97.90
2023-04-09T11:04:49.211Z,98.60
2023-04-09T11:07:39.401Z,99.50
2023-04-09T11:10:26.784Z,99.90
2023-04-09T11:13:15.400Z,99.00
2023-04-09T11:16:04.718Z,98.40
2023-04-09T11:18:53.510Z,96.60
2023-04-09T11:21:46.355Z,98.30
2023-04-09T11:24:43.910Z,97.30
2023-04-09T11:27:31.424Z,98.90
2023-04-09T11:30:18.772Z,99.10
2023-04-09T11:33:08.565Z,96.30
2023-04-09T11:35:57.035Z,97.30
2023-04-09T11:38:44.492Z,96.60
2023-04-09T11:41:40.218Z,96.50
2023-04-09T11:44:27.942Z,96.70
2023-04-09T11:47:17.275Z,98.10
2023-04-09T11:50:05.185Z,97.80
2023-04-09T11:52:52.846Z,98.40
2023-04-09T11:55:40.380Z,96.80
2023-04-09T11:58:28.188Z,97.20
2023-04-09T12:01:16.352Z,95.80
2023-04-09T12:04:03.873Z,95.80
2023-04-09T12:06:51.897Z,96.10
2023-04-09T12:09:47.867Z,96.40
2023-04-09T12:12:43.651Z,96.00
2023-04-09T12:15:36.994Z,97.80
2023-04-09T12:18:24.491Z,96.00
2023-04-09T12:21:12.798Z,94.50
2023-04-09T12:24:00.507Z,94.20
2023-04-09T12:26:48.811Z,93.30
2023-04-09T12:29:36.053Z,93.60
2023-04-09T12:32:23.714Z,93.60
2023-04-09T12:35:11.289Z,92.70
2023-04-09T12:37:59.343Z,90.50
2023-04-09T12:40:46.650Z,90.10
2023-04-09T12:43:34.017Z,90.80
2023-04-09T12:46:21.555Z,90.50
2023-04-09T12:49:09.063Z,90.70
2023-04-09T12:51:56.536Z,91.80
2023-04-09T12:54:45.318Z,90.80
2023-04-09T12:57:33.067Z,90.90
2023-04-09T13:00:20.287Z,90.80
2023-04-09T13:03:08.175Z,90.20
2023-04-09T13:05:56.563Z,90.40
2023-04-09T13:08:44.204Z,91.50
2023-04-09T13:11:31.763Z,86.00
2023-04-09T13:14:19.321Z,89.60
2023-04-09T13:17:09.499Z,90.40
2023-04-09T13:19:56.057Z,88.20
2023-04-09T13:22:45.031Z,88.60
2023-04-09T13:25:32.183Z,86.20
2023-04-09T13:28:19.907Z,85.20
2023-04-09T13:31:07.344Z,81.60
2023-04-09T13:33:54.685Z,87.60
2023-04-09T13:36:42.256Z,85.90
2023-04-09T13:39:29.506Z,79.10
2023-04-09T13:42:17.046Z,80.30
2023-04-09T13:45:05.469Z,82.40
2023-04-09T13:47:52.958Z,85.50
2023-04-09T13:50:40.422Z,84.30
2023-04-09T13:53:27.962Z,81.70
2023-04-09T13:56:15.717Z,81.70
2023-04-09T13:59:03.051Z,81.60
2023-04-09T14:01:51.039Z,83.90
2023-04-09T14:04:38.770Z,85.20
2023-04-09T14:07:26.416Z,80.20
2023-04-09T14:10:13.801Z,85.60
2023-04-09T14:13:01.998Z,85.80
2023-04-09T14:15:50.002Z,83.00
2023-04-09T14:18:37.356Z,82.00
2023-04-09T14:21:26.762Z,81.90
2023-04-09T14:24:13.776Z,84.00
2023-04-09T14:27:02.750Z,85.30
2023-04-09T14:29:51.309Z,79.40
2023-04-09T14:32:38.894Z,82.00
2023-04-09T14:35:26.729Z,75.10
2023-04-09T14:38:14.309Z,75.50
2023-04-09T14:41:01.898Z,76.70
2023-04-09T14:43:49.442Z,76.70
2023-04-09T14:46:37.374Z,75.50
2023-04-09T14:49:24.900Z,74.80
2023-04-09T14:52:12.322Z,74.90
2023-04-09T14:55:00.340Z,73.70
2023-04-09T14:57:47.612Z,74.30
2023-04-09T15:00:36.077Z,72.10
2023-04-09T15:03:23.827Z,74.00
2023-04-09T15:06:13.834Z,72.90
2023-04-09T15:09:01.678Z,71.90
2023-04-09T15:11:49.001Z,74.20
2023-04-09T15:14:36.543Z,74.40
2023-04-09T15:17:24.899Z,72.50
2023-04-09T15:20:13.944Z,70.30
2023-04-09T15:23:01.556Z,69.20
2023-04-09T15:25:48.821Z,67.10
2023-04-09T15:28:36.044Z,68.70
2023-04-09T15:31:23.563Z,70.20
2023-04-09T15:34:11.247Z,67.10
2023-04-09T15:36:58.908Z,66.90
2023-04-09T15:39:46.382Z,66.70
2023-04-09T15:42:33.904Z,71.30
2023-04-09T15:45:21.172Z,69.60
2023-04-09T15:48:10.402Z,69.80
2023-04-09T15:50:57.720Z,70.90
2023-04-09T15:53:45.136Z,68.90
2023-04-09T15:56:33.165Z,68.60
2023-04-09T15:59:20.513Z,71.20
2023-04-09T16:02:08.024Z,66.00
2023-04-09T16:04:55.660Z,66.10
2023-04-09T16:07:43.677Z,66.10
2023-04-09T16:10:31.945Z,62.70
2023-04-09T16:13:19.116Z,63.20
2023-04-09T16:16:07.539Z,63.90
2023-04-09T16:18:55.032Z,61.00
2023-04-09T16:21:44.157Z,61.10
2023-04-09T16:24:32.252Z,62.00
2023-04-09T16:27:19.961Z,61.20
2023-04-09T16:30:08.174Z,62.60
2023-04-09T16:32:55.746Z,63.10
2023-04-09T16:35:43.296Z,60.70
2023-04-09T16:38:31.087Z,61.30
2023-04-09T16:41:18.749Z,60.10
2023-04-09T16:44:06.642Z,62.10
2023-04-09T16:46:53.952Z,63.40
2023-04-09T16:49:40.968Z,63.60
2023-04-09T16:52:29.322Z,62.50
2023-04-09T16:55:17.186Z,63.10
2023-04-09T16:58:04.743Z,64.20
2023-04-09T17:00:52.364Z,66.40
2023-04-09T17:03:43.095Z,68.40
2023-04-09T17:06:30.389Z,68.10
2023-04-09T17:09:19.703Z,68.90
2023-04-09T17:12:07.047Z,70.10
2023-04-09T17:14:55.626Z,73.50
2023-04-09T17:17:44.756Z,71.50
2023-04-09T17:20:32.076Z,72.30
2023-04-09T17:23:21.739Z,72.70
2023-04-09T17:26:08.820Z,73.20
2023-04-09T17:28:56.180Z,76.30
2023-04-09T17:31:43.591Z,81.00
2023-04-09T17:34:32.358Z,84.10
2023-04-09T17:37:20.131Z,85.10
2023-04-09T17:40:09.926Z,86.20
2023-04-09T17:42:57.352Z,89.50
2023-04-09T17:45:44.545Z,91.10
2023-04-09T17:48:32.290Z,93.60
2023-04-09T17:51:20.675Z,94.30
2023-04-09T17:54:07.959Z,95.00
2023-04-09T17:56:56.856Z,95.80
2023-04-09T17:59:44.635Z,96.50
2023-04-09T18:02:33.256Z,97.70
2023-04-09T18:05:24.402Z,98.80
2023-04-09T18:08:13.133Z,99.70
2023-04-09T18:11:12.086Z,99.90
2023-04-09T18:13:52.036Z,99.90
2023-04-09T18:16:40.065Z,99.90
2023-04-09T18:19:27.433Z,99.90
2023-04-09T18:22:14.890Z,99.90
2023-04-09T18:25:02.476Z,99.90
2023-04-09T18:27:49.888Z,99.90
2023-04-09T18:30:38.729Z,99.90
2023-04-09T18:33:27.161Z,99.90
2023-04-09T18:36:14.680Z,99.90
2023-04-09T18:39:04.951Z,99.90
2023-04-09T18:41:52.196Z,99.90
2023-04-09T18:44:40.535Z,99.90
2023-04-09T18:47:27.895Z,99.90
2023-04-09T18:50:18.791Z,99.90
2023-04-09T18:53:07.075Z,99.90
2023-04-09T18:55:54.821Z,99.90
2023-04-09T18:58:42.326Z,99.90
2023-04-09T19:01:29.740Z,99.90
2023-04-09T19:04:17.739Z,99.90
2023-04-09T19:07:04.984Z,99.90
2023-04-09T19:09:52.310Z,99.90
2023-04-09T19:12:41.648Z,99.90
2023-04-09T19:15:29.500Z,99.90
2023-04-09T19:18:18.669Z,99.90
2023-04-09T19:21:08.159Z,99.90
2023-04-09T19:23:55.544Z,99.90
2023-04-09T19:26:42.850Z,99.90
2023-04-09T19:29:30.454Z,99.90
2023-04-09T19:32:17.929Z,99.90
2023-04-09T19:35:05.643Z,99.90
2023-04-09T19:37:53.154Z,99.90
2023-04-09T19:40:40.920Z,99.90
2023-04-09T19:43:28.117Z,99.90
2023-04-09T19:46:15.658Z,99.90
2023-04-09T19:49:03.020Z,99.90
2023-04-09T19:51:50.956Z,99.90
2023-04-09T19:54:38.444Z,99.90
2023-04-09T19:57:26.437Z,99.90
2023-04-09T20:00:15.937Z,99.90
2023-04-09T20:03:04.989Z,99.90
2023-04-09T20:05:53.335Z,99.90
2023-04-09T20:08:40.811Z,99.90
2023-04-09T20:11:28.518Z,99.90
2023-04-09T20:14:15.992Z,99.90
2023-04-09T20:17:03.386Z,99.90
2023-04-09T20:19:50.922Z,99.90
2023-04-09T20:22:40.000Z,99.90
2023-04-09T20:25:29.132Z,99.90
2023-04-09T20:28:16.240Z,99.90
2023-04-09T20:31:07.619Z,99.90
2023-04-09T20:33:55.237Z,99.90
2023-04-09T20:36:43.764Z,99.90
2023-04-09T20:39:31.527Z,99.90
2023-04-09T20:42:18.980Z,99.90
2023-04-09T20:45:06.675Z,99.90
2023-04-09T20:47:54.110Z,99.90
2023-04-09T20:50:42.172Z,99.90
2023-04-09T20:53:29.188Z,99.90
2023-04-09T20:56:17.397Z,99.90
2023-04-09T20:59:04.910Z,99.90
2023-04-09T21:01:53.920Z,99.90
2023-04-09T21:04:41.207Z,99.90
2023-04-09T21:07:28.538Z,99.90
2023-04-09T21:10:16.292Z,99.90
2023-04-09T21:13:03.444Z,99.90
2023-04-09T21:15:51.226Z,99.90
2023-04-09T21:18:38.698Z,99.90
2023-04-09T21:21:27.828Z,99.90
2023-04-09T21:24:16.039Z,99.90
2023-04-09T21:27:05.328Z,99.90
2023-04-09T21:29:53.538Z,99.90
2023-04-09T21:32:41.193Z,99.90
2023-04-09T21:35:28.937Z,99.90
2023-04-09T21:38:16.462Z,99.90
2023-04-09T21:41:04.178Z,99.90
2023-04-09T21:43:51.766Z,99.90
2023-04-09T21:46:40.820Z,99.90
2023-04-09T21:49:28.058Z,99.90
2023-04-09T21:52:15.491Z,99.90
2023-04-09T21:55:03.326Z,99.90
2023-04-09T21:57:52.569Z,99.90
2023-04-09T22:00:39.954Z,99.90
2023-04-09T22:03:27.651Z,99.90
2023-04-09T22:06:16.744Z,99.90
2023-04-09T22:09:04.854Z,99.90
2023-04-09T22:11:53.514Z,99.90
2023-04-09T22:14:41.949Z,99.90
2023-04-09T22:17:29.548Z,99.90
2023-04-09T22:20:17.180Z,99.90
2023-04-09T22:23:04.773Z,99.90
2023-04-09T22:25:53.729Z,99.90
2023-04-09T22:28:41.000Z,99.90
2023-04-09T22:31:28.681Z,99.90
2023-04-09T22:34:21.286Z,99.90
2023-04-09T22:37:04.965Z,99.90
2023-04-09T22:39:52.343Z,99.90
2023-04-09T22:42:41.086Z,99.90
2023-04-09T22:45:29.848Z,99.90
2023-04-09T22:48:17.076Z,99.90
2023-04-09T22:51:04.618Z,99.90
2023-04-09T22:53:52.145Z,99.90
2023-04-09T22:56:39.644Z,99.90
2023-04-09T22:59:39.086Z,99.90
2023-04-09T23:02:16.121Z,99.90
2023-04-09T23:05:03.593Z,99.90
2023-04-09T23:07:51.125Z,99.90
2023-04-09T23:10:38.956Z,99.90
2023-04-09T23:13:26.455Z,99.90
2023-04-09T23:16:15.409Z,99.90
2023-04-09T23:19:03.116Z,99.90
2023-04-09T23:21:50.347Z,99.90
2023-04-09T23:24:38.025Z,99.90
2023-04-09T23:27:27.256Z,99.90
2023-04-09T23:30:18.107Z,99.90
2023-04-09T23:33:05.453Z,99.90
2023-04-09T23:35:53.193Z,99.90
2023-04-09T23:38:42.137Z,99.90
2023-04-09T23:41:29.374Z,99.90
2023-04-09T23:44:16.656Z,99.90
2023-04-09T23:47:05.846Z,99.90
2023-04-09T23:49:53.047Z,99.90
2023-04-09T23:52:40.506Z,99.90
2023-04-09T23:55:28.038Z,99.90
2023-04-09T23:58:15.399Z,99.90
